LFOVLFBA

Guest
Details From LFOV - Laval Entrammes
To LFBA - Agen la Garenne
Flight Number -
Tags generated
Created
Modified
Stats Distance 242 nm / 448 km
Max Altitude 21,000 ft / 6,401 m
Waypoints 4
Social Downloads 0
Likes 0
Share VATSIM

Download

Looking for another format? Having issues loading an existing format? Contact us
Advertisement - Login to hide

Notes

Basic altitude profile: - Ascent Rate: 1500ft/min - Ascent Speed: 200kts - Cruise Altitude: 22000ft - Cruise Speed: 300kts - Descent Rate: 1500ft/min - Descent Speed: 200kts

Route

LFOV TUPAR UM184 CNA LFBA

ID Type Via Altitude Latitude Longitude Leg Dist Tot Dist Heading (true) Name
O LFOV APT - 0 ft / 0 m 48.03136˚ -0.74299˚ - 0 nm - Laval Entrammes
TUPAR FIX - 21,000 ft / 6,401 m 46.42917˚ -0.66278˚ 96 nm 96 nm 178° / 178° -
CNA VOR UM184 (AWY-HI) 21,000 ft / 6,401 m 45.65956˚ -0.31164˚ 48 nm 144 nm 162° / 163° COGNAC CHATEAUBERNARD VOR-DME
O LFBA APT - 0 ft / 0 m 44.17403˚ 0.59296˚ 97 nm 241 nm 156° / 157° Agen la Garenne

Altitude Profile

Advertisement - Login to hide

Weather


0- 5 10 15 20 25 30 35+ Temperature / ° C

Clouds and Precipitation
Forecast for 2017-12-18 00:00 UTC. Updated 19 minutes ago

Ground ~20,000 ft ~40,000 ft Winds

LFOV

Details ICAO LFOV (LVA)
Name Laval Entrammes
Region France
Timezone Europe/Paris (UTC+1.0)
Stats Elevation 330 ft / 101 m (AMSL)
Location 48.031360° -0.742988°
Runways 1
Magnetic Variation 0.310° W

METAR

LFOV 171930Z AUTO 23007KT CAVOK 08/06 Q1027

Decode

TAF

Not found

Departure Runways

ID Width Length Bearing (true) Bearing (mag) Surface Threshold Offset Overrun Length
15 98 ft / 30 m 5,004 ft / 1,525 m 142.43° 142.74° Asphalt 0 ft / 0 m 197 ft / 60 m
33 98 ft / 30 m 5,004 ft / 1,525 m 322.44° 322.75° Asphalt 985 ft / 300 m 197 ft / 60 m

LFBA

Details ICAO LFBA (AGF)
Name Agen la Garenne
Region France
Timezone Europe/Paris (UTC+1.0)
Stats Elevation 204 ft / 62 m (AMSL)
Location 44.174025° 0.592961°
Runways 1
Magnetic Variation 0.343° E

METAR

LFBA 171930Z AUTO 27004KT 9999 BKN045 OVC052 08/06 Q1032 NOSIG

Decode

TAF

Not found

Destination Runways

ID Width Length Bearing (true) Bearing (mag) Surface Threshold Offset Overrun Length
11 98 ft / 30 m 7,088 ft / 2,161 m 112.24° 111.90° Asphalt 541 ft / 165 m 0 ft / 0 m
29 98 ft / 30 m 7,088 ft / 2,161 m 292.26° 291.92° Asphalt 1,312 ft / 400 m 0 ft / 0 m

Approach Navaids

Runway Type Ident Frequency Range Bearing (true) Bearing (mag) Slope Elevation
29 Localiser AG 110.35 MHz 18 nm / 33 km 292.25° 291.91° - 213 ft / 65 m (AMSL)
29 Glidescope AG 110.35 MHz 10 nm / 19 km 292.25° 291.91° 3.30° 240 ft / 73 m (AMSL)
29 DME AG 110.35 MHz 18 nm / 33 km - - - 240 ft / 73 m (AMSL)